Aurelius, New York
Current Conditions -  °F | °C
As of 10:54 AM on Tuesday 21 Oct 2014 (Local Time) from KSYR Reporting Station
Overcast Overcast  
Wind Chill: 46°   Ceiling: 3000
Heat Index: 49°   Visibility: 7mi
Dew Point: 47°   Wind: 7mph
Humidity: 91%   Direction: 100°E
Pressure: 29.86"   Gusts: NA
Location:  42.9235°N, 76.5525°W
Report Text: KSYR 211454Z 10006KT 7SM SCT020 BKN030 OVC050 10/08 A2986 RMK RAE08 SLP109 T00960082 51003
Loading
Personal Weather Stations






























Interactive Weather Map
Tropical Storm Tracking
New forecast layout! Learn more

10-Day Weather Forecast

Advertisements
Track Severe Weather on mobile